Time;durP1;ratioP1;P1;durP2;ratioP2;P2;SDS_P1;SDS_P2;PMS_P1;PMS_P2;Temp;Humidity;BMP_temperature;BMP_pressure;BME280_temperature;BME280_humidity;BME280_pressure;Samples;Min_cycle;Max_cycle;Signal;HPM_P1;HPM_P2
2021/03/27 00:01:38;;;;;;;13.85;12.48;;;;;;;6.26;63.26;99937.63;10642087;27;20059;-67
2021/03/27 00:06:45;;;;;;;13.27;12.00;;;;;;;6.13;63.82;99928.28;10642097;27;20073;-67
2021/03/27 00:11:55;;;;;;;13.70;12.60;;;;;;;6.15;63.88;99923.88;10642258;27;20039;-67
2021/03/27 00:17:06;;;;;;;23.85;21.38;;;;;;;6.14;64.05;99924.78;10642248;27;20095;-66
2021/03/27 00:22:15;;;;;;;24.08;20.10;;;;;;;5.99;64.14;99923.25;10640656;27;20092;-66
2021/03/27 00:27:23;;;;;;;17.95;16.25;;;;;;;6.00;64.15;99915.41;10638307;27;20031;-66
2021/03/27 00:32:31;;;;;;;16.23;14.93;;;;;;;5.89;64.16;99908.56;10640509;27;20047;-68
2021/03/27 00:37:33;;;;;;;14.18;12.88;;;;;;;5.84;64.16;99903.44;10640081;27;20066;-66
2021/03/27 00:42:39;;;;;;;13.80;12.50;;;;;;;5.70;64.14;99903.63;10639577;27;20118;-68
2021/03/27 00:47:47;;;;;;;16.98;12.13;;;;;;;5.57;64.78;99897.72;10639915;27;20044;-67
2021/03/27 00:52:54;;;;;;;12.57;11.52;;;;;;;5.68;65.11;99887.16;10640262;27;20074;-67
2021/03/27 00:58:01;;;;;;;13.63;12.07;;;;;;;5.59;65.56;99884.69;10640237;27;20099;-67
2021/03/27 01:03:15;;;;;;;13.52;12.07;;;;;;;5.59;65.29;99876.84;10641003;27;20511;-69
2021/03/27 01:08:37;;;;;;;13.73;12.40;;;;;;;5.38;65.74;99875.41;10624351;27;20126;-68
2021/03/27 01:13:59;;;;;;;12.75;11.57;;;;;;;5.15;66.28;99859.19;10639168;27;20130;-67
2021/03/27 01:19:18;;;;;;;13.25;12.07;;;;;;;5.27;66.52;99862.53;10620406;27;20047;-67
2021/03/27 01:24:25;;;;;;;12.80;11.80;;;;;;;5.09;66.36;99849.72;10639205;27;20039;-67
2021/03/27 01:29:47;;;;;;;14.05;12.20;;;;;;;5.23;66.21;99842.59;10619881;27;20092;-67
2021/03/27 01:35:07;;;;;;;13.98;12.70;;;;;;;5.11;66.46;99836.66;10638295;27;20074;-66
2021/03/27 01:40:21;;;;;;;14.15;12.85;;;;;;;5.17;66.40;99837.44;10618944;27;20061;-67
2021/03/27 01:46:00;;;;;;;15.23;13.07;;;;;;;5.05;66.71;99838.47;10639202;27;20031;-68
2021/03/27 01:51:27;;;;;;;15.80;12.47;;;;;;;5.18;66.84;99833.97;10619853;27;20057;-67
2021/03/27 01:56:45;;;;;;;13.32;11.93;;;;;;;5.11;67.06;99831.47;10638581;27;20291;-66
2021/03/27 02:01:55;;;;;;;14.10;12.90;;;;;;;5.25;67.56;99827.78;10638131;27;20039;-68
2021/03/27 02:07:03;;;;;;;14.20;12.75;;;;;;;5.41;67.73;99824.97;10638379;27;20054;-68
2021/03/27 02:12:08;;;;;;;12.95;11.95;;;;;;;5.55;66.44;99820.41;10637692;27;20491;-67
2021/03/27 02:17:30;;;;;;;12.57;11.20;;;;;;;5.43;66.82;99821.44;10618749;27;20492;-66
2021/03/27 02:22:42;;;;;;;12.25;11.15;;;;;;;5.61;66.59;99825.53;10635484;27;20050;-67
2021/03/27 02:28:10;;;;;;;12.93;11.82;;;;;;;6.04;66.21;99815.31;10636540;27;20104;-66
2021/03/27 02:33:26;;;;;;;12.13;11.02;;;;;;;6.01;66.09;99815.38;10621668;28;20043;-66
2021/03/27 02:38:40;;;;;;;12.32;11.18;;;;;;;5.98;66.13;99810.22;10636453;28;20035;-68
2021/03/27 02:43:54;;;;;;;12.57;11.45;;;;;;;6.18;64.61;99806.38;10636555;28;20051;-67
2021/03/27 02:49:22;;;;;;;13.23;10.98;;;;;;;5.89;65.64;99815.56;10641463;27;20043;-66
2021/03/27 02:54:28;;;;;;;12.35;11.23;;;;;;;5.86;66.12;99806.91;10627514;27;20212;-67
2021/03/27 02:59:48;;;;;;;12.40;11.18;;;;;;;5.95;65.10;99818.09;10646190;27;20080;-66
2021/03/27 03:05:04;;;;;;;13.35;12.15;;;;;;;6.25;65.04;99810.63;10626188;27;20130;-67
2021/03/27 03:10:18;;;;;;;14.13;12.37;;;;;;;6.47;63.64;99811.09;10644499;27;20043;-68
2021/03/27 03:15:40;;;;;;;12.55;11.45;;;;;;;6.35;63.77;99811.31;10645193;27;20130;-67
2021/03/27 03:20:56;;;;;;;12.75;11.52;;;;;;;6.34;63.83;99818.28;10643830;27;20054;-68
2021/03/27 03:26:34;;;;;;;13.00;11.82;;;;;;;6.17;64.75;99817.72;10635966;27;20423;-67
2021/03/27 03:31:38;;;;;;;11.68;10.57;;;;;;;6.37;65.19;99818.22;10634753;27;20050;-67
2021/03/27 03:37:30;;;;;;;13.13;11.85;;;;;;;6.19;65.10;99816.78;10635996;27;20459;-67
2021/03/27 03:42:38;;;;;;;11.98;10.80;;;;;;;6.23;65.37;99823.69;10628118;27;20054;-67
2021/03/27 03:47:53;;;;;;;;;;;;;;;6.23;65.39;99815.00;10633489;27;20039;-66
2021/03/27 03:52:58;;;;;;;12.45;11.25;;;;;;;6.07;65.58;99819.63;10635049;27;19920;-67
2021/03/27 03:58:38;;;;;;;11.95;10.88;;;;;;;5.88;65.85;99816.41;10633582;27;20039;-67
2021/03/27 04:03:59;;;;;;;13.23;11.93;;;;;;;5.90;66.06;99806.84;10601941;27;20047;-67
2021/03/27 04:09:34;;;;;;;13.48;12.27;;;;;;;6.17;65.92;99805.53;10632856;27;20043;-67
2021/03/27 04:14:58;;;;;;;13.25;11.98;;;;;;;6.22;65.61;99808.06;10615720;27;20389;-67
2021/03/27 04:20:05;;;;;;;11.55;10.55;;;;;;;6.10;65.95;99803.06;10614241;27;20047;-67
2021/03/27 04:25:24;;;;;;;;;;;;;;;6.09;66.03;99809.16;10616085;27;20089;-67
2021/03/27 04:30:31;;;;;;;15.13;9.48;;;;;;;6.39;64.62;99805.16;10614713;27;19926;-67
2021/03/27 04:35:41;;;;;;;8.40;7.60;;;;;;;6.85;63.05;99799.88;10634210;27;20039;-67
2021/03/27 04:40:52;;;;;;;10.38;9.38;;;;;;;7.02;63.03;99796.94;10634051;27;20100;-66
2021/03/27 04:45:59;;;;;;;7.93;7.22;;;;;;;7.10;62.50;99799.41;10632883;27;20449;-67
2021/03/27 04:51:37;;;;;;;7.83;6.93;;;;;;;7.49;60.52;99792.41;10633197;27;20400;-66
2021/03/27 04:56:44;;;;;;;8.05;6.28;;;;;;;8.05;58.85;99788.41;10633188;27;20407;-66
2021/03/27 05:01:51;;;;;;;8.27;7.47;;;;;;;8.72;57.26;99800.66;10633939;27;20043;-67
2021/03/27 05:07:19;;;;;;;8.15;7.35;;;;;;;8.70;57.29;99805.09;10632929;27;20100;-67
2021/03/27 05:12:23;;;;;;;10.35;9.10;;;;;;;8.70;57.07;99812.94;10633672;27;20081;-66
2021/03/27 05:17:57;;;;;;;10.02;7.40;;;;;;;9.12;55.99;99813.50;10633142;27;20043;-67
2021/03/27 05:23:33;;;;;;;10.55;7.25;;;;;;;9.53;55.06;99817.50;10633040;27;20047;-66
2021/03/27 05:28:53;;;;;;;10.20;7.25;;;;;;;9.95;53.88;99819.66;10632228;27;20039;-67
2021/03/27 05:34:32;;;;;;;7.20;6.55;;;;;;;10.14;53.47;99808.53;10614944;27;20064;-67
2021/03/27 05:40:14;;;;;;;8.05;7.20;;;;;;;10.41;52.70;99814.66;10632242;27;20103;-69
2021/03/27 05:45:59;;;;;;;8.02;6.90;;;;;;;10.57;52.27;99819.31;10631270;27;20441;-67
2021/03/27 05:51:19;;;;;;;7.93;7.05;;;;;;;10.60;52.24;99821.00;10584313;27;20059;-67
2021/03/27 05:56:45;;;;;;;6.93;6.25;;;;;;;10.59;52.37;99819.28;10611761;27;20043;-66
2021/03/27 06:02:00;;;;;;;6.30;5.67;;;;;;;10.79;51.94;99815.94;10631207;27;20047;-66
2021/03/27 06:07:43;;;;;;;6.50;5.90;;;;;;;10.38;53.43;99812.13;10631695;27;20054;-67
2021/03/27 06:13:01;;;;;;;5.93;5.30;;;;;;;10.48;53.47;99806.50;10630713;27;20094;-68
2021/03/27 06:18:44;;;;;;;6.88;6.00;;;;;;;10.55;53.23;99802.75;10631190;27;20043;-66
2021/03/27 06:23:52;;;;;;;5.45;4.40;;;;;;;10.95;52.34;99808.34;10629240;27;20039;-66
2021/03/27 06:29:21;;;;;;;9.15;8.35;;;;;;;10.68;54.16;99811.06;10630815;27;20039;-67
2021/03/27 06:34:46;;;;;;;14.40;10.65;;;;;;;10.85;54.74;99820.97;10629919;27;20043;-67
2021/03/27 06:40:09;;;;;;;9.40;8.50;;;;;;;10.77;55.19;99817.75;10629457;28;20036;-66
2021/03/27 06:45:27;;;;;;;8.63;7.55;;;;;;;10.73;55.06;99829.31;10630191;28;20088;-67
2021/03/27 06:50:50;;;;;;;5.38;4.85;;;;;;;11.33;52.03;99833.19;10611615;28;20047;-67
2021/03/27 06:56:06;;;;;;;6.22;5.53;;;;;;;11.66;51.28;99831.06;10611379;28;20183;-67
2021/03/27 07:01:29;;;;;;;5.90;5.30;;;;;;;11.98;50.91;99835.06;10630490;28;20039;-66
2021/03/27 07:07:04;;;;;;;7.50;5.53;;;;;;;12.19;50.44;99841.22;10629749;28;20088;-66
2021/03/27 07:12:18;;;;;;;5.45;4.95;;;;;;;12.56;49.89;99858.97;10630112;28;20039;-67
2021/03/27 07:18:01;;;;;;;7.60;6.07;;;;;;;12.59;49.78;99869.41;10612413;28;20035;-67
2021/03/27 07:23:27;;;;;;;5.78;5.22;;;;;;;12.67;50.05;99886.69;10580099;28;20046;-68
2021/03/27 07:28:54;;;;;;;11.77;4.83;;;;;;;12.60;50.71;99909.81;10631383;28;20039;-67
2021/03/27 07:34:14;;;;;;;6.18;4.10;;;;;;;12.24;53.12;99942.03;10613156;27;20039;-66
2021/03/27 07:39:44;;;;;;;3.75;3.42;;;;;;;11.51;55.79;99981.69;10618980;27;20508;-67
2021/03/27 07:45:13;;;;;;;2.60;2.30;;;;;;;10.74;60.62;100008.00;10638049;27;20042;-67
2021/03/27 07:50:36;;;;;;;3.10;2.70;;;;;;;10.04;62.80;100028.56;10617630;27;20032;-67
2021/03/27 07:56:27;;;;;;;3.72;2.22;;;;;;;9.77;63.64;100036.34;10635086;27;20031;-67
2021/03/27 08:01:39;;;;;;;2.75;1.67;;;;;;;9.44;64.63;100032.91;10555903;27;20078;-67
2021/03/27 08:06:58;;;;;;;2.35;1.50;;;;;;;9.53;64.85;100022.16;10616577;27;20080;-67
2021/03/27 08:12:36;;;;;;;1.42;1.20;;;;;;;9.70;63.24;100026.09;10635220;27;20055;-67
2021/03/27 08:18:10;;;;;;;2.38;1.27;;;;;;;9.88;62.53;100019.44;10634191;27;20067;-68
2021/03/27 08:23:20;;;;;;;1.95;1.45;;;;;;;9.94;63.14;100027.13;10633347;27;20042;-67
2021/03/27 08:28:43;;;;;;;4.45;1.10;;;;;;;10.10;60.94;100046.78;10634900;27;20495;-67
2021/03/27 08:34:07;;;;;;;1.60;1.30;;;;;;;10.31;60.07;100047.94;10633504;27;20047;-66
2021/03/27 08:39:46;;;;;;;1.70;1.25;;;;;;;10.43;59.47;100067.72;10613816;27;20050;-67
2021/03/27 08:45:12;;;;;;;2.03;1.88;;;;;;;10.63;58.61;100081.13;10631422;27;20051;-65
2021/03/27 08:50:58;;;;;;;1.42;1.23;;;;;;;10.30;57.56;100156.56;10632954;27;20042;-66
2021/03/27 08:56:45;;;;;;;3.03;1.80;;;;;;;8.96;60.53;100181.88;10632794;27;20066;-65
2021/03/27 09:02:12;;;;;;;3.50;3.30;;;;;;;7.88;65.40;100211.97;10634786;27;20480;-66
2021/03/27 09:07:20;;;;;;;5.13;4.65;;;;;;;7.59;69.02;100218.56;10615959;27;20055;-68
2021/03/27 09:12:57;;;;;;;4.50;4.20;;;;;;;7.56;69.92;100249.13;10633090;27;20046;-67
2021/03/27 09:18:17;;;;;;;3.63;3.33;;;;;;;7.52;70.17;100273.59;10630337;27;20039;-67
2021/03/27 09:23:25;;;;;;;4.18;3.78;;;;;;;7.49;70.79;100290.22;10612605;27;20408;-66
2021/03/27 09:28:51;;;;;;;3.08;2.47;;;;;;;7.40;68.60;100316.53;10613797;27;20419;-64
2021/03/27 09:34:01;;;;;;;2.05;1.85;;;;;;;7.12;67.35;100328.22;10631989;27;20043;-63
2021/03/27 09:39:12;;;;;;;2.10;1.67;;;;;;;7.11;66.87;100321.28;10615186;27;20035;-63
2021/03/27 09:44:28;;;;;;;1.52;1.40;;;;;;;7.42;64.04;100340.88;10632275;27;20127;-63
2021/03/27 09:49:42;;;;;;;1.60;1.20;;;;;;;8.14;62.34;100352.84;10597466;27;20100;-63
2021/03/27 09:54:51;;;;;;;3.25;1.80;;;;;;;8.30;62.84;100353.47;10632890;27;20084;-64
2021/03/27 10:00:41;;;;;;;1.83;1.40;;;;;;;8.63;61.88;100351.16;10631311;27;20043;-63
2021/03/27 10:05:53;;;;;;;1.35;0.95;;;;;;;9.17;58.32;100348.38;10633707;27;20047;-64
2021/03/27 10:11:04;;;;;;;0.70;0.65;;;;;;;8.97;59.14;100347.00;10633198;27;20031;-63
2021/03/27 10:16:14;;;;;;;1.38;0.88;;;;;;;9.22;57.96;100349.13;10634548;27;20048;-64
2021/03/27 10:21:41;;;;;;;2.75;0.80;;;;;;;9.56;55.73;100346.59;10633005;27;20068;-64
2021/03/27 10:26:49;;;;;;;0.43;0.43;;;;;;;9.50;56.62;100350.25;10630688;27;20038;-64
2021/03/27 10:31:54;;;;;;;1.25;0.73;;;;;;;9.62;56.80;100345.63;10630723;27;20504;-64
2021/03/27 10:36:58;;;;;;;1.20;0.65;;;;;;;9.34;55.12;100352.34;10631321;27;20039;-65
2021/03/27 10:42:26;;;;;;;1.85;0.65;;;;;;;9.73;53.12;100361.97;10629334;28;20516;-64
2021/03/27 10:47:36;;;;;;;0.70;0.70;;;;;;;10.37;52.87;100357.84;10630269;28;20442;-65
2021/03/27 10:52:58;;;;;;;1.25;0.80;;;;;;;11.13;51.43;100346.97;10629754;28;20042;-64
2021/03/27 10:58:14;;;;;;;0.80;0.63;;;;;;;11.65;49.18;100344.56;10629811;28;20046;-64
2021/03/27 11:03:50;;;;;;;1.52;0.52;;;;;;;11.69;49.90;100357.56;10629532;28;20062;-62
2021/03/27 11:09:17;;;;;;;1.65;0.70;;;;;;;12.04;49.35;100358.22;10417791;28;20053;-64
2021/03/27 11:14:33;;;;;;;0.75;0.52;;;;;;;11.43;46.09;100357.50;10406957;28;20057;-65
2021/03/27 11:20:12;;;;;;;0.93;0.50;;;;;;;11.72;48.93;100346.94;10423402;28;20045;-66
2021/03/27 11:25:39;;;;;;;0.80;0.47;;;;;;;11.70;46.08;100348.75;10423564;28;20080;-65
2021/03/27 11:31:03;;;;;;;0.85;0.30;;;;;;;11.51;44.19;100345.84;10424137;28;20053;-65
2021/03/27 11:36:15;;;;;;;1.63;0.40;;;;;;;11.51;43.24;100358.13;10385581;28;20049;-64
2021/03/27 11:42:03;;;;;;;1.55;0.52;;;;;;;12.47;43.13;100386.66;10519606;27;20059;-63
2021/03/27 11:47:23;;;;;;;1.20;0.35;;;;;;;12.56;43.34;100390.78;10521335;27;20050;-66
2021/03/27 11:52:46;;;;;;;1.05;0.30;;;;;;;12.82;41.68;100384.59;10660312;27;20042;-66
2021/03/27 11:58:06;;;;;;;1.13;0.30;;;;;;;13.00;39.19;100373.38;10640918;27;20092;-66
2021/03/27 12:03:28;;;;;;;0.60;0.30;;;;;;;13.25;38.62;100372.53;10638231;27;20035;-66
2021/03/27 12:08:41;;;;;;;1.50;0.30;;;;;;;13.34;39.47;100370.38;10638861;27;20074;-66
2021/03/27 12:14:02;;;;;;;2.13;0.30;;;;;;;13.02;40.94;100389.16;10636981;27;20043;-65
2021/03/27 12:19:23;;;;;;;0.60;0.20;;;;;;;12.64;42.26;100399.28;10638351;27;20092;-66
2021/03/27 12:25:02;;;;;;;1.33;0.30;;;;;;;12.15;42.20;100406.19;10657085;27;20489;-66
2021/03/27 12:30:45;;;;;;;0.63;0.30;;;;;;;11.68;42.95;100402.38;10636546;27;20043;-66
2021/03/27 12:35:53;;;;;;;1.00;0.40;;;;;;;11.55;42.82;100401.88;10619490;27;20035;-66
2021/03/27 12:41:09;;;;;;;1.30;0.30;;;;;;;11.78;41.78;100401.19;10606382;27;20485;-66
2021/03/27 12:46:34;;;;;;;0.85;0.30;;;;;;;11.54;41.45;100398.38;10639234;27;20039;-66
2021/03/27 12:51:53;;;;;;;0.70;0.20;;;;;;;11.84;40.64;100404.53;10624661;27;20138;-66
2021/03/27 12:57:20;;;;;;;1.55;0.28;;;;;;;12.27;38.66;100411.06;10636558;27;20049;-65
2021/03/27 13:02:37;;;;;;;;;;;;;;;12.32;37.95;100414.41;10625876;27;20043;-66
2021/03/27 13:07:52;;;;;;;0.70;0.23;;;;;;;12.22;39.85;100415.63;10637414;27;19919;-65
2021/03/27 13:13:21;;;;;;;0.80;0.40;;;;;;;12.36;38.00;100423.94;10614630;27;20035;-66
2021/03/27 13:18:49;;;;;;;0.68;0.50;;;;;;;11.94;37.65;100423.53;10617431;27;20446;-66
2021/03/27 13:24:15;;;;;;;2.25;0.50;;;;;;;11.90;37.99;100431.59;10630070;27;20438;-66
2021/03/27 13:29:40;;;;;;;0.80;0.30;;;;;;;11.88;37.66;100428.16;10632585;27;20046;-66
2021/03/27 13:34:49;;;;;;;0.40;0.25;;;;;;;11.88;37.96;100444.81;10597092;27;20035;-67
2021/03/27 13:39:59;;;;;;;5.15;0.50;;;;;;;11.86;37.58;100450.13;10591505;28;20047;-67
2021/03/27 13:45:14;;;;;;;0.95;0.45;;;;;;;11.58;37.92;100465.84;10591917;28;20032;-67
2021/03/27 13:50:31;;;;;;;6.95;0.60;;;;;;;10.83;43.32;100561.72;10591861;28;20450;-67
2021/03/27 13:55:39;;;;;;;2.53;0.50;;;;;;;8.04;56.17;100606.13;10592597;28;20035;-66
2021/03/27 14:01:36;;;;;;;3.22;0.68;;;;;;;7.11;62.33;100648.91;10591994;28;20412;-68
2021/03/27 14:06:53;;;;;;;13.05;0.70;;;;;;;6.89;63.75;100668.25;10219659;29;20051;-65
2021/03/27 14:12:03;;;;;;;;;;;;;;;6.42;63.02;100692.88;10219642;29;20055;-66
2021/03/27 14:17:07;;;;;;;6.30;1.00;;;;;;;6.47;64.62;100706.81;10217856;29;19929;-67
2021/03/27 14:22:36;;;;;;;3.00;0.60;;;;;;;6.52;62.71;100669.34;10215615;29;20069;-66
2021/03/27 14:27:49;;;;;;;0.98;0.30;;;;;;;6.68;61.88;100692.75;10199444;29;20099;-65
2021/03/27 14:33:05;;;;;;;0.90;0.40;;;;;;;7.36;61.18;100687.97;10215466;29;20055;-64
2021/03/27 14:38:47;;;;;;;1.33;0.40;;;;;;;7.29;58.53;100701.06;10215622;29;20091;-65
2021/03/27 14:43:54;;;;;;;1.45;0.50;;;;;;;7.19;57.41;100709.00;10564737;28;20057;-65
2021/03/27 14:49:07;;;;;;;2.13;0.80;;;;;;;7.23;56.44;100708.97;10596542;28;20048;-66
2021/03/27 14:54:19;;;;;;;1.27;0.40;;;;;;;7.07;53.36;100710.81;10595495;28;20050;-65
2021/03/27 14:59:29;;;;;;;1.52;0.50;;;;;;;6.98;54.44;100700.41;10576998;28;20031;-63
2021/03/27 15:04:35;;;;;;;2.03;1.05;;;;;;;7.02;53.99;100707.34;10595758;28;20075;-65
2021/03/27 15:10:13;;;;;;;1.27;0.50;;;;;;;7.01;52.58;100702.16;10627923;27;20035;-64
2021/03/27 15:15:26;;;;;;;0.90;0.30;;;;;;;6.73;53.42;100678.81;10637824;27;20043;-64
2021/03/27 15:20:33;;;;;;;1.05;0.30;;;;;;;6.74;52.64;100675.31;10636298;27;20392;-63
2021/03/27 15:31:29;;;;;;;1.75;0.57;;;;;;;6.79;54.49;100688.34;10678399;27;20043;-66
2021/03/27 15:36:57;;;;;;;0.75;0.40;;;;;;;6.67;52.73;100677.97;10677746;27;20099;-67
2021/03/27 15:42:21;;;;;;;1.00;0.30;;;;;;;6.71;53.90;100687.53;10612371;27;20096;-67
2021/03/27 15:47:36;;;;;;;1.23;0.40;;;;;;;6.72;52.33;100682.28;10616013;27;20527;-67
2021/03/27 15:52:47;;;;;;;2.40;0.77;;;;;;;6.96;51.52;100685.63;10573999;28;20047;-67
2021/03/27 15:57:51;;;;;;;1.65;0.40;;;;;;;7.18;51.41;100676.75;10573301;28;20047;-66
2021/03/27 16:03:10;;;;;;;1.30;0.50;;;;;;;7.16;51.87;100685.47;10590959;28;20035;-65
2021/03/27 16:08:23;;;;;;;1.55;0.60;;;;;;;7.02;51.86;100703.88;10572907;28;20073;-67
2021/03/27 16:13:34;;;;;;;1.83;0.70;;;;;;;6.71;52.36;100722.34;10572422;28;20044;-66
2021/03/27 16:18:51;;;;;;;1.58;0.68;;;;;;;6.60;53.85;100738.94;10621824;27;20035;-67
2021/03/27 16:24:14;;;;;;;1.40;0.77;;;;;;;6.48;53.86;100743.34;10603491;27;20050;-68
2021/03/27 16:29:35;;;;;;;2.17;0.80;;;;;;;6.36;54.46;100759.06;10583720;28;20119;-67
2021/03/27 16:35:00;;;;;;;1.60;0.77;;;;;;;6.38;55.25;100775.59;10602293;27;20056;-67
2021/03/27 16:40:07;;;;;;;1.88;0.80;;;;;;;5.82;59.84;100860.00;10643912;27;20047;-67
2021/03/27 16:45:30;;;;;;;1.25;0.50;;;;;;;4.23;65.62;100855.03;10638572;27;20134;-67
2021/03/27 16:50:43;;;;;;;1.48;0.55;;;;;;;4.03;66.81;100859.22;10636033;27;20054;-68
2021/03/27 16:56:09;;;;;;;1.15;0.52;;;;;;;3.97;66.99;100872.16;10636678;27;20039;-68
2021/03/27 17:01:29;;;;;;;2.42;1.10;;;;;;;3.96;67.07;100893.84;10618553;27;20051;-68
2021/03/27 17:06:46;;;;;;;1.33;0.80;;;;;;;3.85;67.52;100892.84;10634277;27;20043;-68
2021/03/27 17:12:12;;;;;;;2.47;1.23;;;;;;;3.66;68.31;100899.63;10634414;27;20044;-67
2021/03/27 17:17:19;;;;;;;1.30;0.90;;;;;;;3.75;67.99;100889.31;10635318;27;20039;-68
2021/03/27 17:22:28;;;;;;;1.42;0.82;;;;;;;3.83;68.19;100877.25;10634386;27;20047;-67
2021/03/27 17:27:37;;;;;;;1.50;0.70;;;;;;;3.81;67.68;100847.78;10633309;27;20043;-66
2021/03/27 17:32:57;;;;;;;1.65;0.80;;;;;;;3.87;67.04;100854.75;10614652;27;20092;-67
2021/03/27 17:38:07;;;;;;;2.22;0.82;;;;;;;3.91;67.94;100875.59;10636032;27;20484;-67
2021/03/27 17:43:12;;;;;;;1.80;0.82;;;;;;;3.78;67.99;100868.53;10656353;27;20071;-66
2021/03/27 17:48:32;;;;;;;1.27;1.02;;;;;;;3.86;67.69;100887.69;10650886;27;20131;-66
2021/03/27 17:53:38;;;;;;;1.40;1.30;;;;;;;3.91;67.39;100906.81;10615933;27;20096;-67
2021/03/27 17:58:52;;;;;;;2.22;2.03;;;;;;;3.89;67.49;100895.50;10597957;27;20043;-67
2021/03/27 18:04:07;;;;;;;2.53;1.70;;;;;;;3.77;67.57;100908.41;10633736;27;20378;-67
2021/03/27 18:09:13;;;;;;;1.95;1.65;;;;;;;3.70;67.48;100912.66;10616713;27;20043;-66
2021/03/27 18:14:25;;;;;;;2.40;2.20;;;;;;;3.78;66.73;100912.75;10631951;27;20481;-67
2021/03/27 18:19:38;;;;;;;2.55;2.10;;;;;;;3.72;67.93;100929.16;10611899;27;20032;-66
2021/03/27 18:24:51;;;;;;;2.85;1.63;;;;;;;3.93;66.83;100932.81;10630298;27;20057;-66
2021/03/27 18:30:32;;;;;;;1.40;1.30;;;;;;;3.82;66.01;100932.72;10629202;27;20067;-66
2021/03/27 18:35:38;;;;;;;2.58;1.35;;;;;;;3.95;65.19;100938.94;10628085;27;20153;-67
2021/03/27 18:40:56;;;;;;;2.90;1.42;;;;;;;3.99;64.83;100948.50;10612378;27;20035;-68
2021/03/27 18:46:12;;;;;;;2.65;1.17;;;;;;;4.03;64.56;100960.69;10628280;28;20046;-67
2021/03/27 18:51:16;;;;;;;0.80;0.80;;;;;;;4.08;64.16;100959.00;10609699;28;20412;-67
2021/03/27 18:56:25;;;;;;;1.45;1.05;;;;;;;4.03;64.62;100952.88;10629140;28;20398;-67
2021/03/27 19:01:38;;;;;;;1.42;0.88;;;;;;;4.01;64.07;100949.38;10629309;28;20043;-68
2021/03/27 19:07:00;;;;;;;2.33;1.10;;;;;;;4.19;63.67;100952.16;10629803;28;20046;-68
2021/03/27 19:12:10;;;;;;;1.80;1.20;;;;;;;4.15;63.85;100959.91;10614627;28;20516;-68
2021/03/27 19:17:40;;;;;;;2.08;1.33;;;;;;;4.20;63.39;100966.03;10597228;28;20039;-68
2021/03/27 19:22:56;;;;;;;2.85;1.42;;;;;;;4.09;63.84;100962.47;10621696;28;20051;-67
2021/03/27 19:28:19;;;;;;;2.17;1.23;;;;;;;4.29;62.91;100969.63;10633656;27;20043;-68
2021/03/27 19:33:21;;;;;;;4.68;1.67;;;;;;;4.30;63.01;100968.75;10641274;27;20126;-68
2021/03/27 19:38:32;;;;;;;1.77;1.20;;;;;;;4.38;62.87;100979.19;10641025;27;20545;-68
2021/03/27 19:43:56;;;;;;;2.35;1.20;;;;;;;4.48;63.01;100983.66;10639430;27;20091;-67
2021/03/27 19:49:17;;;;;;;4.25;1.52;;;;;;;4.49;63.15;101001.00;10639984;27;20121;-68
2021/03/27 19:55:13;;;;;;;2.38;1.10;;;;;;;4.51;62.86;101012.28;10662493;27;20035;-69
2021/03/27 20:00:32;;;;;;;2.45;1.00;;;;;;;4.54;63.14;101019.28;10579628;28;20067;-69
2021/03/27 20:05:39;;;;;;;3.50;1.40;;;;;;;4.55;63.68;101023.59;10600105;28;20036;-68
2021/03/27 20:10:54;;;;;;;1.58;1.10;;;;;;;4.51;63.81;101037.47;10628108;27;20046;-68
2021/03/27 20:16:04;;;;;;;3.20;1.40;;;;;;;4.34;64.58;101042.53;10639876;27;20108;-68
2021/03/27 20:21:51;;;;;;;1.98;1.10;;;;;;;4.37;63.92;101060.75;10639779;27;20047;-69
2021/03/27 20:27:15;;;;;;;2.50;1.73;;;;;;;4.35;64.62;101065.09;10595094;27;20047;-70
2021/03/27 20:32:29;;;;;;;2.35;1.45;;;;;;;4.23;66.63;101064.97;10639485;27;20047;-68
2021/03/27 20:37:51;;;;;;;1.27;1.13;;;;;;;3.80;67.66;101067.06;10638240;27;20035;-68
2021/03/27 20:43:11;;;;;;;1.25;1.05;;;;;;;3.58;68.06;101078.03;10617830;27;20082;-69
2021/03/27 20:48:42;;;;;;;1.02;0.73;;;;;;;3.49;68.02;101077.06;10648444;27;20481;-69
2021/03/27 20:54:18;;;;;;;2.45;1.20;;;;;;;3.37;68.03;101102.91;10677754;27;20046;-68
2021/03/27 20:59:51;;;;;;;1.35;0.70;;;;;;;3.43;68.26;101113.38;10643972;27;20040;-67
2021/03/27 21:05:07;;;;;;;1.00;0.90;;;;;;;3.43;68.39;101109.91;10657853;27;20058;-67
2021/03/27 21:10:17;;;;;;;2.10;1.10;;;;;;;3.54;67.87;101123.91;10674099;27;20051;-68
2021/03/27 21:15:29;;;;;;;1.75;1.30;;;;;;;3.50;67.84;101135.16;10649594;27;20039;-67
2021/03/27 21:20:36;;;;;;;2.15;1.17;;;;;;;3.45;67.42;101140.28;10644481;27;20046;-67
2021/03/27 21:25:58;;;;;;;2.17;1.25;;;;;;;3.45;67.68;101145.47;10637745;27;20050;-68
2021/03/27 21:31:19;;;;;;;2.55;1.83;;;;;;;3.44;67.37;101148.91;10618723;27;20099;-67
2021/03/27 21:36:31;;;;;;;2.40;1.40;;;;;;;3.56;66.72;101157.75;10618131;27;20127;-67
2021/03/27 21:41:32;;;;;;;2.20;1.50;;;;;;;3.51;66.61;101160.28;10618378;27;20519;-68
2021/03/27 21:46:49;;;;;;;2.92;1.35;;;;;;;3.44;66.87;101164.50;10636350;27;20039;-67
2021/03/27 21:52:16;;;;;;;2.90;1.63;;;;;;;3.45;66.73;101176.69;10635873;27;20066;-67
2021/03/27 21:57:17;;;;;;;4.05;1.58;;;;;;;3.42;66.65;101192.22;10616189;27;20043;-68
2021/03/27 22:02:27;;;;;;;4.25;1.38;;;;;;;3.47;66.13;101187.09;10615978;27;20071;-69
2021/03/27 22:07:38;;;;;;;3.53;1.25;;;;;;;3.54;65.60;101188.91;10613541;27;20035;-68
2021/03/27 22:13:20;;;;;;;2.75;1.48;;;;;;;3.55;65.53;101185.47;10634342;27;20039;-68
2021/03/27 22:18:40;;;;;;;1.40;1.30;;;;;;;3.53;64.97;101201.03;10633762;27;20035;-68
2021/03/27 22:23:49;;;;;;;3.58;1.20;;;;;;;3.57;64.66;101195.91;10632147;27;20043;-68
2021/03/27 22:28:59;;;;;;;2.60;1.30;;;;;;;3.61;64.59;101205.50;10632324;27;20035;-68
2021/03/27 22:34:09;;;;;;;2.13;1.20;;;;;;;3.58;64.52;101206.31;10629871;27;20065;-67
2021/03/27 22:39:29;;;;;;;4.20;1.30;;;;;;;3.53;64.88;101211.44;10628450;27;20039;-67
2021/03/27 22:44:51;;;;;;;2.85;1.42;;;;;;;3.55;64.58;101227.09;10627334;27;20047;-67
2021/03/27 22:50:34;;;;;;;2.63;1.52;;;;;;;3.45;64.55;101232.97;10628733;28;20054;-67
2021/03/27 22:55:42;;;;;;;2.78;1.40;;;;;;;3.47;64.60;101244.28;10597210;28;20386;-67
2021/03/27 23:00:52;;;;;;;3.05;1.63;;;;;;;3.43;64.74;101239.88;10629482;28;20046;-67
2021/03/27 23:06:01;;;;;;;2.90;1.35;;;;;;;3.35;64.86;101244.06;10633405;27;20446;-66
2021/03/27 23:11:07;;;;;;;4.75;2.05;;;;;;;3.31;64.99;101248.31;10637252;27;20043;-66
2021/03/27 23:16:31;;;;;;;3.88;1.48;;;;;;;3.34;65.16;101257.91;10637666;27;20051;-65
2021/03/27 23:21:55;;;;;;;3.03;1.55;;;;;;;3.28;65.17;101259.56;10636426;27;20042;-68
2021/03/27 23:27:28;;;;;;;3.78;1.55;;;;;;;3.35;64.96;101255.31;10618292;27;20056;-68
2021/03/27 23:33:06;;;;;;;4.43;1.45;;;;;;;3.39;64.98;101259.72;10628698;27;20055;-67
2021/03/27 23:38:33;;;;;;;2.25;1.40;;;;;;;3.44;64.88;101259.81;10635795;27;20039;-67
2021/03/27 23:43:47;;;;;;;4.20;2.00;;;;;;;3.65;64.25;101267.09;10635461;27;20118;-68
2021/03/27 23:48:51;;;;;;;3.67;1.63;;;;;;;3.59;64.44;101267.88;10635066;27;20484;-67
2021/03/27 23:54:01;;;;;;;3.67;1.73;;;;;;;3.65;64.37;101278.38;10634266;27;20039;-67
2021/03/27 23:59:41;;;;;;;3.78;2.08;;;;;;;3.69;64.52;101269.78;10633361;27;20100;-67
